createdAt,value
2017-08-09T00:01:56.007Z,0
2017-08-09T00:12:10.811Z,0
2017-08-09T00:22:25.668Z,0
2017-08-09T00:32:39.789Z,0
2017-08-09T00:42:54.267Z,0
2017-08-09T00:53:09.717Z,0
2017-08-09T01:03:24.241Z,0
2017-08-09T01:13:38.090Z,0
2017-08-09T01:23:53.256Z,0
2017-08-09T01:34:07.091Z,0
2017-08-09T01:44:22.286Z,0
2017-08-09T01:54:37.791Z,0
2017-08-09T02:04:52.669Z,0
2017-08-09T02:15:06.421Z,0
2017-08-09T02:25:21.798Z,0
2017-08-09T02:35:36.690Z,0
2017-08-09T02:45:52.094Z,0
2017-08-09T02:56:06.404Z,0
2017-08-09T03:06:21.010Z,0
2017-08-09T03:16:34.900Z,0
2017-08-09T03:26:49.389Z,4
2017-08-09T03:37:04.981Z,12
2017-08-09T03:47:18.776Z,48
2017-08-09T03:57:33.726Z,140
2017-08-09T04:07:48.538Z,348
2017-08-09T04:18:03.799Z,736
2017-08-09T04:28:18.642Z,1348
2017-08-09T04:38:33.308Z,2088
2017-08-09T04:48:48.267Z,3180
2017-08-09T04:59:02.257Z,6404
2017-08-09T05:09:16.874Z,6904
2017-08-09T05:19:31.419Z,5024
2017-08-09T05:29:46.134Z,2404
2017-08-09T05:40:00.922Z,1120
2017-08-09T05:50:16.398Z,1160
2017-08-09T06:00:30.520Z,1804
2017-08-09T06:10:44.465Z,3680
2017-08-09T06:20:59.881Z,13884
2017-08-09T06:31:14.497Z,18976
2017-08-09T06:41:28.418Z,4460
2017-08-09T06:51:43.688Z,3636
2017-08-09T07:01:58.752Z,6012
2017-08-09T07:12:13.903Z,11668
2017-08-09T07:22:28.288Z,17568
2017-08-09T07:32:42.130Z,14416
2017-08-09T07:42:57.343Z,18272
2017-08-09T07:53:11.436Z,28416
2017-08-09T08:03:26.077Z,23712
2017-08-09T08:13:40.454Z,35008
2017-08-09T08:23:54.705Z,24704
2017-08-09T08:34:09.022Z,29472
2017-08-09T08:44:22.880Z,40768
2017-08-09T08:54:37.628Z,42688
2017-08-09T09:04:51.804Z,22560
2017-08-09T09:15:06.699Z,26304
2017-08-09T09:25:21.674Z,38048
2017-08-09T09:35:36.653Z,25536
2017-08-09T09:45:52.248Z,76128
2017-08-09T09:56:06.567Z,87904
2017-08-09T10:06:20.464Z,25440
2017-08-09T10:16:35.325Z,26240
2017-08-09T10:26:50.984Z,38144
2017-08-09T10:37:05.880Z,68032
2017-08-09T10:47:19.868Z,103360
2017-08-09T10:57:34.352Z,75552
2017-08-09T11:07:48.558Z,28224
2017-08-09T11:18:04.286Z,49216
2017-08-09T11:28:19.680Z,102336
2017-08-09T11:38:34.102Z,60512
2017-08-09T11:48:48.512Z,96672
2017-08-09T11:59:02.727Z,54688
2017-08-09T12:09:18.552Z,41344
2017-08-09T12:19:33.889Z,103872
2017-08-09T12:29:48.267Z,33952
2017-08-09T12:40:03.790Z,95264
2017-08-09T12:50:19.028Z,99712
2017-08-09T13:00:34.077Z,105952
2017-08-09T13:10:49.429Z,28416
2017-08-09T13:21:04.681Z,84832
2017-08-09T13:31:18.869Z,33184
2017-08-09T13:41:33.455Z,91520
2017-08-09T13:51:47.459Z,88064
2017-08-09T14:02:03.241Z,19840
2017-08-09T14:12:18.687Z,27648
2017-08-09T14:22:32.750Z,28224
2017-08-09T14:32:48.120Z,55552
2017-08-09T14:43:02.454Z,21632
2017-08-09T14:53:18.278Z,71776
2017-08-09T15:03:33.532Z,64512
2017-08-09T15:13:48.251Z,15908
2017-08-09T15:24:03.758Z,22272
2017-08-09T15:34:19.186Z,59648
2017-08-09T15:44:34.749Z,35136
2017-08-09T15:54:50.399Z,17740
2017-08-09T16:05:05.818Z,18336
2017-08-09T16:15:20.687Z,13300
2017-08-09T16:25:35.513Z,14816
2017-08-09T16:35:49.455Z,19744
2017-08-09T16:46:04.242Z,38240
2017-08-09T16:56:19.801Z,29344
2017-08-09T17:06:35.217Z,30336
2017-08-09T17:16:49.593Z,19936
2017-08-09T17:27:04.870Z,15136
2017-08-09T17:37:19.784Z,13600
2017-08-09T17:47:35.199Z,7064
2017-08-09T17:57:49.519Z,5468
2017-08-09T18:08:03.381Z,3844
2017-08-09T18:18:17.741Z,3296
2017-08-09T18:28:31.635Z,2736
2017-08-09T18:38:47.400Z,2268
2017-08-09T18:49:01.180Z,1688
2017-08-09T18:59:15.927Z,880
2017-08-09T19:09:30.781Z,280
2017-08-09T19:19:45.487Z,84
2017-08-09T19:30:01.215Z,20
2017-08-09T19:40:16.984Z,4
2017-08-09T19:50:31.680Z,0
2017-08-09T20:00:46.210Z,0
2017-08-09T20:10:59.855Z,0
2017-08-09T20:21:13.913Z,0
2017-08-09T20:31:28.458Z,0
2017-08-09T20:41:43.324Z,0
2017-08-09T20:51:57.357Z,0
2017-08-09T21:02:12.820Z,0
2017-08-09T21:12:27.572Z,0
2017-08-09T21:22:41.726Z,0
2017-08-09T21:32:56.635Z,0
2017-08-09T21:43:11.993Z,0
2017-08-09T21:53:25.930Z,0
2017-08-09T22:03:40.932Z,0
2017-08-09T22:13:55.145Z,0
2017-08-09T22:24:09.823Z,0
2017-08-09T22:34:24.590Z,0
2017-08-09T22:44:38.518Z,0
2017-08-09T22:54:52.773Z,0
2017-08-09T23:05:07.818Z,0
2017-08-09T23:15:23.026Z,0
2017-08-09T23:25:37.549Z,0
2017-08-09T23:35:52.228Z,0
2017-08-09T23:46:06.957Z,0
2017-08-09T23:56:20.726Z,0
